Nautilus — P3QQ7 — position and weather

sailwx.info

Track history (hours):
 
Tides and Currents Weather Stations Pressure Air Temp Water Temp Dewpoint Dewpoint Depression Visibility Wind Speed Wind Dir Waves Ship Positions

Nautilus

Last reported at 2014-Jul-22 04:25 UTC. Time now 2014-Aug-01 05:54 UTC.
Position N 31°05' E 122°28'.
Warning: this ship's position is 10 days out of date.

Length 176 m; draft 7.9 m.

Type: Tanker. MMSI: 212434000.

Date/timePositionNaut miles runAvg speedWind from/ knotsBaromVisibWave heightAir tempDewpointWater temp
2014-Jul-22 04:25N 31°05' E 122°28'3913.5
2014-Jul-22 01:32N 31°18' E 121°46'1211.9
2014-Jul-22 00:32N 31°24' E 121°33'1010.2
2014-Jul-21 23:33N 31°30' E 121°24'5 3.6
2014-Jul-21 22:10N 31°34' E 121°20'0 0.0
2014-Jul-21 21:10N 31°34' E 121°20'0 0.0
2014-Jul-21 19:52N 31°34' E 121°20'0 0.0
2014-Jul-21 19:16N 31°34' E 121°20'0 0.0
2014-Jul-21 18:22N 31°34' E 121°20'0 0.0
2014-Jul-21 17:22N 31°34' E 121°20'0 0.0
2014-Jul-21 16:28N 31°34' E 121°20'0 0.0
2014-Jul-21 15:33N 31°34' E 121°20'5 4.7
2014-Jul-21 14:33N 31°37' E 121°16'1212.4
2014-Jul-21 13:33N 31°45' E 121°05'1110.5
2014-Jul-21 12:32N 31°50' E 120°54'1212.4
2014-Jul-21 11:33N 32°01' E 120°46'1212.0
2014-Jul-21 10:33N 32°03' E 120°32'8 8.4
2014-Jul-21 09:33N 32°01' E 120°23'1 1.2
2014-Jul-21 08:27N 32°02' E 120°24'0 0.0
2014-Jul-21 07:33N 32°02' E 120°24'0 0.0
2014-Jul-21 06:30N 32°02' E 120°24'0 0.0
2014-Jul-21 05:31N 32°02' E 120°24'0 0.0
2014-Jul-21 04:33N 32°02' E 120°24'0 0.0
2014-Jul-21 03:30N 32°02' E 120°24'0 0.0
2014-Jul-21 02:33N 32°02' E 120°24'0 0.0
2014-Jul-21 01:07N 32°02' E 120°24'0 0.0
2014-Jul-21 00:24N 32°02' E 120°24'0 0.0
2014-Jul-20 23:24N 32°02' E 120°24'0 0.0
2014-Jul-20 22:30N 32°02' E 120°24'0 0.0
2014-Jul-20 21:25N 32°02' E 120°24'0 0.0
2014-Jul-20 20:33N 32°02' E 120°24'0 0.0
2014-Jul-20 19:30N 32°02' E 120°24'0 0.0
2014-Jul-20 18:33N 32°02' E 120°24'0 0.0
2014-Jul-20 17:33N 32°02' E 120°24'0 0.0
2014-Jul-20 16:33N 32°02' E 120°24'0 0.0
2014-Jul-20 15:27N 32°02' E 120°24'0 0.0
2014-Jul-20 14:33N 32°02' E 120°24'0 0.0
2014-Jul-20 13:33N 32°02' E 120°24'0 0.0
2014-Jul-20 12:30N 32°02' E 120°24'0 0.0
2014-Jul-20 11:30N 32°02' E 120°24'0 0.0
2014-Jul-20 10:33N 32°02' E 120°24'0 0.0
2014-Jul-20 09:33N 32°02' E 120°24'0 0.0
2014-Jul-20 08:33N 32°02' E 120°24'0 0.0
2014-Jul-20 07:33N 32°02' E 120°24'0 0.0
2014-Jul-20 06:33N 32°02' E 120°24'0 0.0
2014-Jul-20 05:33N 32°02' E 120°24'0 0.0
2014-Jul-20 04:33N 32°02' E 120°24'0 0.0
2014-Jul-20 03:33N 32°02' E 120°24'3 3.0
2014-Jul-20 02:33N 31°60' E 120°22'1010.1
2014-Jul-20 01:34N 31°56' E 120°11'0 0.1
2014-Jul-20 00:33N 31°56' E 120°11'0 0.0
2014-Jul-19 23:30N 31°56' E 120°11'0 0.0
2014-Jul-19 22:33N 31°56' E 120°11'0 0.0
2014-Jul-19 21:24N 31°56' E 120°11'0 0.0
2014-Jul-19 20:33N 31°56' E 120°11'0 0.0
2014-Jul-19 19:30N 31°56' E 120°11'0 0.0
2014-Jul-19 18:30N 31°56' E 120°11'0 0.0
2014-Jul-19 17:18N 31°56' E 120°11'0 0.0
2014-Jul-19 16:24N 31°56' E 120°11'0 0.0
2014-Jul-19 15:30N 31°56' E 120°11'0 0.0
2014-Jul-19 14:30N 31°56' E 120°11'0 0.0
2014-Jul-19 13:30N 31°56' E 120°11'0 0.0
2014-Jul-19 12:12N 31°56' E 120°11'0 0.0
2014-Jul-19 10:33N 31°56' E 120°11'0 0.0
2014-Jul-19 09:30N 31°56' E 120°11'0 0.0
2014-Jul-19 08:30N 31°56' E 120°11'0 0.0
2014-Jul-19 07:24N 31°56' E 120°11'0 0.0
2014-Jul-19 06:30N 31°56' E 120°11'0 0.0
2014-Jul-19 05:30N 31°56' E 120°11'0 0.0
2014-Jul-19 04:30N 31°56' E 120°11'0 0.0
2014-Jul-19 03:33N 31°56' E 120°11'0 0.0
2014-Jul-19 02:27N 31°56' E 120°11'0 0.0
2014-Jul-19 01:33N 31°56' E 120°11'0 0.0
2014-Jul-19 00:31N 31°56' E 120°11'0 0.0
2014-Jul-18 23:30N 31°56' E 120°11'0 0.0
2014-Jul-18 22:33N 31°56' E 120°11'0 0.0
2014-Jul-18 21:27N 31°56' E 120°11'0 0.0
2014-Jul-18 20:30N 31°56' E 120°11'0 0.0
2014-Jul-18 19:30N 31°56' E 120°11'0 0.0
2014-Jul-18 18:33N 31°56' E 120°11'0 0.0
2014-Jul-18 17:30N 31°56' E 120°11'0 0.0
2014-Jul-18 16:30N 31°56' E 120°11'0 0.0
2014-Jul-18 15:33N 31°56' E 120°11'0 0.0
2014-Jul-18 14:30N 31°56' E 120°11'0 0.0
2014-Jul-18 13:33N 31°56' E 120°11'0 0.0
2014-Jul-18 12:30N 31°56' E 120°11'0 0.1
2014-Jul-18 11:33N 31°56' E 120°11'0 0.1
2014-Jul-18 10:30N 31°56' E 120°11'0 0.0
2014-Jul-18 09:33N 31°56' E 120°11'0 0.0
2014-Jul-18 08:33N 31°56' E 120°11'0 0.0
2014-Jul-18 07:33N 31°56' E 120°11'0 0.0
2014-Jul-18 06:33N 31°56' E 120°11'0 0.0
2014-Jul-18 05:30N 31°56' E 120°11'0 0.0
2014-Jul-18 04:33N 31°56' E 120°11'0 0.0
2014-Jul-18 03:30N 31°56' E 120°11'0 0.0
2014-Jul-18 02:33N 31°56' E 120°11'0 0.0
2014-Jul-18 01:33N 31°56' E 120°11'0 0.0
2014-Jul-18 00:30N 31°56' E 120°11'0 0.0
2014-Jul-17 23:30N 31°56' E 120°11'0 0.0
2014-Jul-17 22:33N 31°56' E 120°11'0 0.0
2014-Jul-17 21:30N 31°56' E 120°11'0 0.0
2014-Jul-17 20:33N 31°56' E 120°11'0 0.0
2014-Jul-17 19:33N 31°56' E 120°11'0 0.0
2014-Jul-17 18:33N 31°56' E 120°11'0 0.0
2014-Jul-17 17:33N 31°56' E 120°11'0 0.0
2014-Jul-17 16:24N 31°56' E 120°11'0 0.0
2014-Jul-17 15:33N 31°56' E 120°11'0 0.1
2014-Jul-17 14:33N 31°56' E 120°11'0 0.0
2014-Jul-17 13:30N 31°56' E 120°11'0 0.0
2014-Jul-17 12:30N 31°56' E 120°11'0 0.1
2014-Jul-17 11:33N 31°56' E 120°11'0 0.0
2014-Jul-17 10:33N 31°56' E 120°11'0 0.0
2014-Jul-17 09:30N 31°56' E 120°11'0 0.1
2014-Jul-17 08:30N 31°56' E 120°11'0 0.1
2014-Jul-17 07:33N 31°56' E 120°11'6 5.8
2014-Jul-17 06:33N 31°57' E 120°17'7 7.0
2014-Jul-17 05:29N 32°02' E 120°24'0 0.0
2014-Jul-17 04:32N 32°02' E 120°24'0 0.0
2014-Jul-17 03:26N 32°02' E 120°24'0 0.0
2014-Jul-17 02:32N 32°02' E 120°24'0 0.0
2014-Jul-17 01:33N 32°02' E 120°24'0 0.0
2014-Jul-17 00:33N 32°02' E 120°24'0 0.0
2014-Jul-16 23:32N 32°02' E 120°24'0 0.0
2014-Jul-16 22:32N 32°02' E 120°24'0 0.0
2014-Jul-16 21:32N 32°02' E 120°24'0 0.0
2014-Jul-16 20:32N 32°02' E 120°24'0 0.0
2014-Jul-16 19:32N 32°02' E 120°24'0 0.0
2014-Jul-16 18:33N 32°02' E 120°24'0 0.0
2014-Jul-16 17:29N 32°02' E 120°24'0 0.0
2014-Jul-16 16:29N 32°02' E 120°24'0 0.0
2014-Jul-16 15:32N 32°02' E 120°24'0 0.0
2014-Jul-16 14:32N 32°02' E 120°24'0 0.0
2014-Jul-16 13:29N 32°02' E 120°24'0 0.0
2014-Jul-16 12:29N 32°02' E 120°24'0 0.0
2014-Jul-16 11:29N 32°02' E 120°24'0 0.0
2014-Jul-16 10:26N 32°02' E 120°24'0 0.0
2014-Jul-16 09:29N 32°02' E 120°24'0 0.0
2014-Jul-16 08:32N 32°02' E 120°24'0 0.0
2014-Jul-16 07:32N 32°02' E 120°24'0 0.0
2014-Jul-16 06:29N 32°02' E 120°24'0 0.0
2014-Jul-16 05:33N 32°02' E 120°24'0 0.0
2014-Jul-16 04:33N 32°02' E 120°24'0 0.0
2014-Jul-16 03:26N 32°02' E 120°24'0 0.0
2014-Jul-16 02:33N 32°02' E 120°24'0 0.0
2014-Jul-16 01:32N 32°02' E 120°24'0 0.0
2014-Jul-16 00:32N 32°02' E 120°24'0 0.0
2014-Jul-15 23:32N 32°02' E 120°24'0 0.0
2014-Jul-15 22:33N 32°02' E 120°24'0 0.0
2014-Jul-15 21:33N 32°02' E 120°24'0 0.0
2014-Jul-15 20:33N 32°02' E 120°24'0 0.0
2014-Jul-15 19:32N 32°02' E 120°24'0 0.0
2014-Jul-15 18:32N 32°02' E 120°24'0 0.0
2014-Jul-15 17:32N 32°02' E 120°24'0 0.0
2014-Jul-15 16:32N 32°02' E 120°24'0 0.0
2014-Jul-15 15:32N 32°02' E 120°24'0 0.0
2014-Jul-15 14:32N 32°02' E 120°24'0 0.0
2014-Jul-15 13:32N 32°02' E 120°24'0 0.0
2014-Jul-15 12:32N 32°02' E 120°24'0 0.0
2014-Jul-15 11:32N 32°02' E 120°24'0 0.0
2014-Jul-15 10:29N 32°02' E 120°24'0 0.0
2014-Jul-15 09:32N 32°02' E 120°24'0 0.0
2014-Jul-15 08:33N 32°02' E 120°24'0 0.0
2014-Jul-15 07:26N 32°02' E 120°24'0 0.0
2014-Jul-15 06:32N 32°02' E 120°24'0 0.0
2014-Jul-15 05:29N 32°02' E 120°24'0 0.0
2014-Jul-15 04:29N 32°02' E 120°24'0 0.0
2014-Jul-15 03:29N 32°02' E 120°24'0 0.0
2014-Jul-15 02:33N 32°02' E 120°24'0 0.0
2014-Jul-15 01:33N 32°02' E 120°24'0 0.0
2014-Jul-15 00:32N 32°02' E 120°24'0 0.0
2014-Jul-14 23:32N 32°02' E 120°24'0 0.0
2014-Jul-14 22:32N 32°02' E 120°24'0 0.0
2014-Jul-14 21:32N 32°02' E 120°24'0 0.0
2014-Jul-14 20:32N 32°02' E 120°24'0 0.0
2014-Jul-14 19:33N 32°02' E 120°24'0 0.0
2014-Jul-14 18:33N 32°02' E 120°24'0 0.0
2014-Jul-14 17:29N 32°02' E 120°24'0 0.0
2014-Jul-14 16:29N 32°02' E 120°24'0 0.0
2014-Jul-14 15:26N 32°02' E 120°24'0 0.0
2014-Jul-14 14:32N 32°02' E 120°24'0 0.0
2014-Jul-14 13:32N 32°02' E 120°24'0 0.0
2014-Jul-14 12:20N 32°02' E 120°24'0 0.0
2014-Jul-14 11:32N 32°02' E 120°24'0 0.0
2014-Jul-14 10:29N 32°02' E 120°24'0 0.0
2014-Jul-14 09:29N 32°02' E 120°24'0 0.0
2014-Jul-14 08:29N 32°02' E 120°24'0 0.0
2014-Jul-14 07:23N 32°02' E 120°24'0 0.0
2014-Jul-14 06:29N 32°02' E 120°24'0 0.0
2014-Jul-14 05:23N 32°02' E 120°24'0 0.0
2014-Jul-14 04:17N 32°02' E 120°24'0 0.0
2014-Jul-14 03:23N 32°02' E 120°24'0 0.0
2014-Jul-14 02:29N 32°02' E 120°24'0 0.0
2014-Jul-14 01:29N 32°02' E 120°24'0 0.0
2014-Jul-14 00:17N 32°02' E 120°24'0 0.0
2014-Jul-13 23:29N 32°02' E 120°24'0 0.0
2014-Jul-13 22:29N 32°02' E 120°24'0 0.0
2014-Jul-13 21:23N 32°02' E 120°24'0 0.0
2014-Jul-13 20:29N 32°02' E 120°24'0 0.0
2014-Jul-13 19:26N 32°02' E 120°24'0 0.0
2014-Jul-13 18:20N 32°02' E 120°24'0 0.0
2014-Jul-13 17:32N 32°02' E 120°24'0 0.0
2014-Jul-13 16:23N 32°02' E 120°24'0 0.0
2014-Jul-13 15:26N 32°02' E 120°24'0 0.0
2014-Jul-13 14:33N 32°02' E 120°24'0 0.0
2014-Jul-13 13:32N 32°02' E 120°24'0 0.0
2014-Jul-13 12:32N 32°02' E 120°24'0 0.0
2014-Jul-13 11:32N 32°02' E 120°24'0 0.0
2014-Jul-13 10:34N 32°02' E 120°24'1 1.2
2014-Jul-13 09:33N 32°01' E 120°24'8 7.5
2014-Jul-13 08:33N 32°04' E 120°32'1010.4
2014-Jul-13 07:34N 32°00' E 120°43'1110.6
2014-Jul-13 06:33N 31°54' E 120°53'2712.5
2014-Jul-13 04:24N 31°36' E 121°17'1112.5
2014-Jul-13 03:33N 31°29' E 121°26'10 9.5
2014-Jul-13 02:33N 31°23' E 121°35'1212.0
2014-Jul-13 01:31N 31°18' E 121°48'  
Track history (hours):
 
Tides and Currents Weather Stations Pressure Air Temp Water Temp Dewpoint Dewpoint Depression Visibility Wind Speed Wind Dir Waves Ship Positions

Nautilus

Last reported at 2014-Jul-22 04:25 UTC. Time now 2014-Aug-01 05:54 UTC.
Position N 31°05' E 122°28'.
Warning: this ship's position is 10 days out of date.

Length 176 m; draft 7.9 m.

Type: Tanker. MMSI: 212434000.

Date/timePositionNaut miles runAvg speedWind from/ knotsBaromVisibWave heightAir tempDewpointWater temp
2014-Jul-22 04:25N 31°05' E 122°28'3913.5
2014-Jul-22 01:32N 31°18' E 121°46'1211.9
2014-Jul-22 00:32N 31°24' E 121°33'1010.2
2014-Jul-21 23:33N 31°30' E 121°24'5 3.6
2014-Jul-21 22:10N 31°34' E 121°20'0 0.0
2014-Jul-21 21:10N 31°34' E 121°20'0 0.0
2014-Jul-21 19:52N 31°34' E 121°20'0 0.0
2014-Jul-21 19:16N 31°34' E 121°20'0 0.0
2014-Jul-21 18:22N 31°34' E 121°20'0 0.0
2014-Jul-21 17:22N 31°34' E 121°20'0 0.0
2014-Jul-21 16:28N 31°34' E 121°20'0 0.0
2014-Jul-21 15:33N 31°34' E 121°20'5 4.7
2014-Jul-21 14:33N 31°37' E 121°16'1212.4
2014-Jul-21 13:33N 31°45' E 121°05'1110.5
2014-Jul-21 12:32N 31°50' E 120°54'1212.4
2014-Jul-21 11:33N 32°01' E 120°46'1212.0
2014-Jul-21 10:33N 32°03' E 120°32'8 8.4
2014-Jul-21 09:33N 32°01' E 120°23'1 1.2
2014-Jul-21 08:27N 32°02' E 120°24'0 0.0
2014-Jul-21 07:33N 32°02' E 120°24'0 0.0
2014-Jul-21 06:30N 32°02' E 120°24'0 0.0
2014-Jul-21 05:31N 32°02' E 120°24'0 0.0
2014-Jul-21 04:33N 32°02' E 120°24'0 0.0
2014-Jul-21 03:30N 32°02' E 120°24'0 0.0
2014-Jul-21 02:33N 32°02' E 120°24'0 0.0
2014-Jul-21 01:07N 32°02' E 120°24'0 0.0
2014-Jul-21 00:24N 32°02' E 120°24'0 0.0
2014-Jul-20 23:24N 32°02' E 120°24'0 0.0
2014-Jul-20 22:30N 32°02' E 120°24'0 0.0
2014-Jul-20 21:25N 32°02' E 120°24'0 0.0
2014-Jul-20 20:33N 32°02' E 120°24'0 0.0
2014-Jul-20 19:30N 32°02' E 120°24'0 0.0
2014-Jul-20 18:33N 32°02' E 120°24'0 0.0
2014-Jul-20 17:33N 32°02' E 120°24'0 0.0
2014-Jul-20 16:33N 32°02' E 120°24'0 0.0
2014-Jul-20 15:27N 32°02' E 120°24'0 0.0
2014-Jul-20 14:33N 32°02' E 120°24'0 0.0
2014-Jul-20 13:33N 32°02' E 120°24'0 0.0
2014-Jul-20 12:30N 32°02' E 120°24'0 0.0
2014-Jul-20 11:30N 32°02' E 120°24'0 0.0
2014-Jul-20 10:33N 32°02' E 120°24'0 0.0
2014-Jul-20 09:33N 32°02' E 120°24'0 0.0
2014-Jul-20 08:33N 32°02' E 120°24'0 0.0
2014-Jul-20 07:33N 32°02' E 120°24'0 0.0
2014-Jul-20 06:33N 32°02' E 120°24'0 0.0
2014-Jul-20 05:33N 32°02' E 120°24'0 0.0
2014-Jul-20 04:33N 32°02' E 120°24'0 0.0
2014-Jul-20 03:33N 32°02' E 120°24'3 3.0
2014-Jul-20 02:33N 31°60' E 120°22'1010.1
2014-Jul-20 01:34N 31°56' E 120°11'0 0.1
2014-Jul-20 00:33N 31°56' E 120°11'0 0.0
2014-Jul-19 23:30N 31°56' E 120°11'0 0.0
2014-Jul-19 22:33N 31°56' E 120°11'0 0.0
2014-Jul-19 21:24N 31°56' E 120°11'0 0.0
2014-Jul-19 20:33N 31°56' E 120°11'0 0.0
2014-Jul-19 19:30N 31°56' E 120°11'0 0.0
2014-Jul-19 18:30N 31°56' E 120°11'0 0.0
2014-Jul-19 17:18N 31°56' E 120°11'0 0.0
2014-Jul-19 16:24N 31°56' E 120°11'0 0.0
2014-Jul-19 15:30N 31°56' E 120°11'0 0.0
2014-Jul-19 14:30N 31°56' E 120°11'0 0.0
2014-Jul-19 13:30N 31°56' E 120°11'0 0.0
2014-Jul-19 12:12N 31°56' E 120°11'0 0.0
2014-Jul-19 10:33N 31°56' E 120°11'0 0.0
2014-Jul-19 09:30N 31°56' E 120°11'0 0.0
2014-Jul-19 08:30N 31°56' E 120°11'0 0.0
2014-Jul-19 07:24N 31°56' E 120°11'0 0.0
2014-Jul-19 06:30N 31°56' E 120°11'0 0.0
2014-Jul-19 05:30N 31°56' E 120°11'0 0.0
2014-Jul-19 04:30N 31°56' E 120°11'0 0.0
2014-Jul-19 03:33N 31°56' E 120°11'0 0.0
2014-Jul-19 02:27N 31°56' E 120°11'0 0.0
2014-Jul-19 01:33N 31°56' E 120°11'0 0.0
2014-Jul-19 00:31N 31°56' E 120°11'0 0.0
2014-Jul-18 23:30N 31°56' E 120°11'0 0.0
2014-Jul-18 22:33N 31°56' E 120°11'0 0.0
2014-Jul-18 21:27N 31°56' E 120°11'0 0.0
2014-Jul-18 20:30N 31°56' E 120°11'0 0.0
2014-Jul-18 19:30N 31°56' E 120°11'0 0.0
2014-Jul-18 18:33N 31°56' E 120°11'0 0.0
2014-Jul-18 17:30N 31°56' E 120°11'0 0.0
2014-Jul-18 16:30N 31°56' E 120°11'0 0.0
2014-Jul-18 15:33N 31°56' E 120°11'0 0.0
2014-Jul-18 14:30N 31°56' E 120°11'0 0.0
2014-Jul-18 13:33N 31°56' E 120°11'0 0.0
2014-Jul-18 12:30N 31°56' E 120°11'0 0.1
2014-Jul-18 11:33N 31°56' E 120°11'0 0.1
2014-Jul-18 10:30N 31°56' E 120°11'0 0.0
2014-Jul-18 09:33N 31°56' E 120°11'0 0.0
2014-Jul-18 08:33N 31°56' E 120°11'0 0.0
2014-Jul-18 07:33N 31°56' E 120°11'0 0.0
2014-Jul-18 06:33N 31°56' E 120°11'0 0.0
2014-Jul-18 05:30N 31°56' E 120°11'0 0.0
2014-Jul-18 04:33N 31°56' E 120°11'0 0.0
2014-Jul-18 03:30N 31°56' E 120°11'0 0.0
2014-Jul-18 02:33N 31°56' E 120°11'0 0.0
2014-Jul-18 01:33N 31°56' E 120°11'0 0.0
2014-Jul-18 00:30N 31°56' E 120°11'0 0.0
2014-Jul-17 23:30N 31°56' E 120°11'0 0.0
2014-Jul-17 22:33N 31°56' E 120°11'0 0.0
2014-Jul-17 21:30N 31°56' E 120°11'0 0.0
2014-Jul-17 20:33N 31°56' E 120°11'0 0.0
2014-Jul-17 19:33N 31°56' E 120°11'0 0.0
2014-Jul-17 18:33N 31°56' E 120°11'0 0.0
2014-Jul-17 17:33N 31°56' E 120°11'0 0.0
2014-Jul-17 16:24N 31°56' E 120°11'0 0.0
2014-Jul-17 15:33N 31°56' E 120°11'0 0.1
2014-Jul-17 14:33N 31°56' E 120°11'0 0.0
2014-Jul-17 13:30N 31°56' E 120°11'0 0.0
2014-Jul-17 12:30N 31°56' E 120°11'0 0.1
2014-Jul-17 11:33N 31°56' E 120°11'0 0.0
2014-Jul-17 10:33N 31°56' E 120°11'0 0.0
2014-Jul-17 09:30N 31°56' E 120°11'0 0.1
2014-Jul-17 08:30N 31°56' E 120°11'0 0.1
2014-Jul-17 07:33N 31°56' E 120°11'6 5.8
2014-Jul-17 06:33N 31°57' E 120°17'7 7.0
2014-Jul-17 05:29N 32°02' E 120°24'0 0.0
2014-Jul-17 04:32N 32°02' E 120°24'0 0.0
2014-Jul-17 03:26N 32°02' E 120°24'0 0.0
2014-Jul-17 02:32N 32°02' E 120°24'0 0.0
2014-Jul-17 01:33N 32°02' E 120°24'0 0.0
2014-Jul-17 00:33N 32°02' E 120°24'0 0.0
2014-Jul-16 23:32N 32°02' E 120°24'0 0.0
2014-Jul-16 22:32N 32°02' E 120°24'0 0.0
2014-Jul-16 21:32N 32°02' E 120°24'0 0.0
2014-Jul-16 20:32N 32°02' E 120°24'0 0.0
2014-Jul-16 19:32N 32°02' E 120°24'0 0.0
2014-Jul-16 18:33N 32°02' E 120°24'0 0.0
2014-Jul-16 17:29N 32°02' E 120°24'0 0.0
2014-Jul-16 16:29N 32°02' E 120°24'0 0.0
2014-Jul-16 15:32N 32°02' E 120°24'0 0.0
2014-Jul-16 14:32N 32°02' E 120°24'0 0.0
2014-Jul-16 13:29N 32°02' E 120°24'0 0.0
2014-Jul-16 12:29N 32°02' E 120°24'0 0.0
2014-Jul-16 11:29N 32°02' E 120°24'0 0.0
2014-Jul-16 10:26N 32°02' E 120°24'0 0.0
2014-Jul-16 09:29N 32°02' E 120°24'0 0.0
2014-Jul-16 08:32N 32°02' E 120°24'0 0.0
2014-Jul-16 07:32N 32°02' E 120°24'0 0.0
2014-Jul-16 06:29N 32°02' E 120°24'0 0.0
2014-Jul-16 05:33N 32°02' E 120°24'0 0.0
2014-Jul-16 04:33N 32°02' E 120°24'0 0.0
2014-Jul-16 03:26N 32°02' E 120°24'0 0.0
2014-Jul-16 02:33N 32°02' E 120°24'0 0.0
2014-Jul-16 01:32N 32°02' E 120°24'0 0.0
2014-Jul-16 00:32N 32°02' E 120°24'0 0.0
2014-Jul-15 23:32N 32°02' E 120°24'0 0.0
2014-Jul-15 22:33N 32°02' E 120°24'0 0.0
2014-Jul-15 21:33N 32°02' E 120°24'0 0.0
2014-Jul-15 20:33N 32°02' E 120°24'0 0.0
2014-Jul-15 19:32N 32°02' E 120°24'0 0.0
2014-Jul-15 18:32N 32°02' E 120°24'0 0.0
2014-Jul-15 17:32N 32°02' E 120°24'0 0.0
2014-Jul-15 16:32N 32°02' E 120°24'0 0.0
2014-Jul-15 15:32N 32°02' E 120°24'0 0.0
2014-Jul-15 14:32N 32°02' E 120°24'0 0.0
2014-Jul-15 13:32N 32°02' E 120°24'0 0.0
2014-Jul-15 12:32N 32°02' E 120°24'0 0.0
2014-Jul-15 11:32N 32°02' E 120°24'0 0.0
2014-Jul-15 10:29N 32°02' E 120°24'0 0.0
2014-Jul-15 09:32N 32°02' E 120°24'0 0.0
2014-Jul-15 08:33N 32°02' E 120°24'0 0.0
2014-Jul-15 07:26N 32°02' E 120°24'0 0.0
2014-Jul-15 06:32N 32°02' E 120°24'0 0.0
2014-Jul-15 05:29N 32°02' E 120°24'0 0.0
2014-Jul-15 04:29N 32°02' E 120°24'0 0.0
2014-Jul-15 03:29N 32°02' E 120°24'0 0.0
2014-Jul-15 02:33N 32°02' E 120°24'0 0.0
2014-Jul-15 01:33N 32°02' E 120°24'0 0.0
2014-Jul-15 00:32N 32°02' E 120°24'0 0.0
2014-Jul-14 23:32N 32°02' E 120°24'0 0.0
2014-Jul-14 22:32N 32°02' E 120°24'0 0.0
2014-Jul-14 21:32N 32°02' E 120°24'0 0.0
2014-Jul-14 20:32N 32°02' E 120°24'0 0.0
2014-Jul-14 19:33N 32°02' E 120°24'0 0.0
2014-Jul-14 18:33N 32°02' E 120°24'0 0.0
2014-Jul-14 17:29N 32°02' E 120°24'0 0.0
2014-Jul-14 16:29N 32°02' E 120°24'0 0.0
2014-Jul-14 15:26N 32°02' E 120°24'0 0.0
2014-Jul-14 14:32N 32°02' E 120°24'0 0.0
2014-Jul-14 13:32N 32°02' E 120°24'0 0.0
2014-Jul-14 12:20N 32°02' E 120°24'0 0.0
2014-Jul-14 11:32N 32°02' E 120°24'0 0.0
2014-Jul-14 10:29N 32°02' E 120°24'0 0.0
2014-Jul-14 09:29N 32°02' E 120°24'0 0.0
2014-Jul-14 08:29N 32°02' E 120°24'0 0.0
2014-Jul-14 07:23N 32°02' E 120°24'0 0.0
2014-Jul-14 06:29N 32°02' E 120°24'0 0.0
2014-Jul-14 05:23N 32°02' E 120°24'0 0.0
2014-Jul-14 04:17N 32°02' E 120°24'0 0.0
2014-Jul-14 03:23N 32°02' E 120°24'0 0.0
2014-Jul-14 02:29N 32°02' E 120°24'0 0.0
2014-Jul-14 01:29N 32°02' E 120°24'0 0.0
2014-Jul-14 00:17N 32°02' E 120°24'0 0.0
2014-Jul-13 23:29N 32°02' E 120°24'0 0.0
2014-Jul-13 22:29N 32°02' E 120°24'0 0.0
2014-Jul-13 21:23N 32°02' E 120°24'0 0.0
2014-Jul-13 20:29N 32°02' E 120°24'0 0.0
2014-Jul-13 19:26N 32°02' E 120°24'0 0.0
2014-Jul-13 18:20N 32°02' E 120°24'0 0.0
2014-Jul-13 17:32N 32°02' E 120°24'0 0.0
2014-Jul-13 16:23N 32°02' E 120°24'0 0.0
2014-Jul-13 15:26N 32°02' E 120°24'0 0.0
2014-Jul-13 14:33N 32°02' E 120°24'0 0.0
2014-Jul-13 13:32N 32°02' E 120°24'0 0.0
2014-Jul-13 12:32N 32°02' E 120°24'0 0.0
2014-Jul-13 11:32N 32°02' E 120°24'0 0.0
2014-Jul-13 10:34N 32°02' E 120°24'1 1.2
2014-Jul-13 09:33N 32°01' E 120°24'8 7.5
2014-Jul-13 08:33N 32°04' E 120°32'1010.4
2014-Jul-13 07:34N 32°00' E 120°43'1110.6
2014-Jul-13 06:33N 31°54' E 120°53'2712.5
2014-Jul-13 04:24N 31°36' E 121°17'1112.5
2014-Jul-13 03:33N 31°29' E 121°26'10 9.5
2014-Jul-13 02:33N 31°23' E 121°35'1212.0
2014-Jul-13 01:31N 31°18' E 121°48'  

Dump ship's entire track history